This is the latest recevied weather packets stored in our database for station/object SQ7ACP-3. If no packets are shown the sender has not sent any weather packets the latest 1 day(s).
| Time | Temp. | Humidity | Pressure | Rain* | Wind** | Luminosity | Snow |
|---|---|---|---|---|---|---|---|
| 1778088169 | 22.78° C | 46% | 1004.4 hPa | 0 mm | - | - | - |
| 1778087520 | 22.78° C | 45% | 1004.3 hPa | 0 mm | - | - | - |
| 1778086886 | 23.33° C | 44% | 1004.4 hPa | 0 mm | - | - | - |
| 1778086249 | 22.78° C | 45% | 1004.4 hPa | 0 mm | - | - | - |
| 1778085641 | 23.33° C | 44% | 1004.4 hPa | 0 mm | - | - | - |
| 1778085041 | 23.33° C | 44% | 1004.3 hPa | 0 mm | - | - | - |
| 1778081392 | 23.89° C | 39% | 1004.4 hPa | 0 mm | - | - | - |
| 1778080791 | 24.44° C | 39% | 1004.4 hPa | 0 mm | - | - | - |
| 1778080191 | 25° C | 38% | 1004.3 hPa | 0 mm | - | - | - |
| 1778079579 | 24.44° C | 40% | 1004.4 hPa | 0 mm | - | - | - |
| 1778078366 | 23.89° C | 40% | 1004.5 hPa | 0 mm | - | - | - |
| 1778077154 | 24.44° C | 39% | 1004.6 hPa | 0 mm | - | - | - |
| 1778076542 | 23.89° C | 40% | 1004.6 hPa | 0 mm | - | - | - |
| 1778075941 | 24.44° C | 39% | 1004.6 hPa | 0 mm | - | - | - |
| 1778065913 | 22.22° C | 48% | 1004.9 hPa | 0 mm | - | - | - |
| 1778064678 | 23.33° C | 46% | 1004.9 hPa | 0 mm | - | - | - |
| 1778063424 | 22.22° C | 48% | 1004.8 hPa | 0 mm | - | - | - |
| 1778062154 | 22.22° C | 48% | 1004.8 hPa | 0 mm | - | - | - |
| 1778060948 | 21.67° C | 51% | 1004.8 hPa | 0 mm | - | - | - |
| 1778058529 | 20.56° C | 53% | 1004.7 hPa | 0 mm | - | - | - |
| 1778057304 | 20° C | 55% | 1004.7 hPa | 0 mm | - | - | - |
| 1778056704 | 20° C | 54% | 1004.7 hPa | 0 mm | - | - | - |
| 1778056095 | 20° C | 54% | 1004.7 hPa | 0 mm | - | - | - |
| 1778054278 | 18.89° C | 57% | 1004.6 hPa | 0 mm | - | - | - |
| 1778053666 | 19.44° C | 57% | 1004.6 hPa | 0 mm | - | - | - |
* Rain latest hour (hover to see other rain measurements)
** Current wind speed in m/s (hover to see current wind gust speed)